My Little Violet — ZCPE7 — position and weather

sailwx.info

Track history (hours):
 
Tides and Currents Weather Stations Pressure Air Temp Water Temp Dewpoint Dewpoint Depression Visibility Wind Speed Wind Dir Waves Ship Positions

My Little Violet

Last reported at 2015-May-04 19:31 UTC. Time now 2015-May-07 01:37 UTC.
Position N 43°39' E 007°17'.

Length 45 m.

Type: Pleasure craft. MMSI: 319496000.

Date/timePositionNaut miles runAvg speedWind from/ knotsBaromVisibWave heightAir tempDewpointWater temp
2015-May-04 19:31N 43°39' E 007°17'5 4.8
2015-May-04 18:33N 43°39' E 007°11'4 4.3
2015-May-04 17:33N 43°35' E 007°10'1612.6
2015-May-04 16:16N 43°19' E 007°07'21 5.5
2015-May-04 12:23N 43°16' E 006°38'0 0.0
2015-May-04 11:33N 43°16' E 006°38'0 0.0
2015-May-04 10:32N 43°16' E 006°38'0 0.0
2015-May-04 03:26N 43°16' E 006°38'0 0.0
2015-May-04 02:21N 43°16' E 006°38'0 0.0
2015-May-04 01:21N 43°16' E 006°38'0 0.0
2015-May-04 00:33N 43°16' E 006°38'0 0.0
2015-May-03 23:17N 43°16' E 006°38'0 0.0
2015-May-03 22:27N 43°16' E 006°38'0 0.0
2015-May-03 21:33N 43°16' E 006°38'0 0.0
2015-May-03 18:06N 43°16' E 006°38'0 0.0
2015-May-03 17:04N 43°16' E 006°38'  
2015-Apr-30 19:04N 43°29' E 007°03'611.2
2015-Apr-30 18:33N 43°33' E 007°09'6 6.4
2015-Apr-30 17:33N 43°39' E 007°11'0 0.0
2015-Apr-30 16:33N 43°39' E 007°11'0 0.0
2015-Apr-30 15:33N 43°39' E 007°11'0 0.0
2015-Apr-30 14:33N 43°39' E 007°11'2 1.8
2015-Apr-30 13:33N 43°38' E 007°13'  
2015-Apr-27 17:14N 43°42' E 007°17'0 0.0
2015-Apr-27 16:33N 43°42' E 007°17'0 0.0
2015-Apr-27 15:33N 43°42' E 007°17'0 0.0
2015-Apr-27 14:33N 43°42' E 007°17'0 0.0
2015-Apr-27 13:33N 43°42' E 007°17'0 0.0
2015-Apr-27 12:32N 43°42' E 007°17'0 0.0
2015-Apr-27 11:33N 43°42' E 007°17'0 0.0
2015-Apr-27 10:33N 43°42' E 007°17'0 0.0
2015-Apr-27 09:33N 43°42' E 007°17'0 0.0
2015-Apr-27 08:33N 43°42' E 007°17'0 0.0
2015-Apr-27 07:33N 43°42' E 007°17'0 0.0
2015-Apr-27 06:33N 43°42' E 007°17'0 0.0
2015-Apr-27 05:33N 43°42' E 007°17'0 0.0
2015-Apr-27 04:33N 43°42' E 007°17'0 0.0
2015-Apr-27 03:33N 43°42' E 007°17'0 0.0
2015-Apr-27 02:33N 43°42' E 007°17'0 0.0
2015-Apr-27 01:33N 43°42' E 007°17'0 0.0
2015-Apr-26 23:33N 43°42' E 007°17'0 0.0
2015-Apr-26 22:33N 43°42' E 007°17'0 0.0
2015-Apr-26 21:33N 43°42' E 007°17'0 0.0
2015-Apr-26 20:33N 43°42' E 007°17'0 0.0
2015-Apr-26 19:33N 43°42' E 007°17'0 0.0
2015-Apr-26 18:33N 43°42' E 007°17'0 0.0
2015-Apr-26 17:33N 43°42' E 007°17'0 0.0
2015-Apr-26 16:33N 43°42' E 007°17'0 0.0
2015-Apr-26 15:28N 43°42' E 007°17'0 0.0
2015-Apr-26 14:15N 43°42' E 007°17'0 0.0
2015-Apr-26 13:30N 43°42' E 007°17'0 0.0
2015-Apr-26 12:33N 43°42' E 007°17'2 1.8
2015-Apr-26 11:33N 43°41' E 007°19'3110.0
2015-Apr-26 08:26N 43°28' E 007°59'4310.8
2015-Apr-26 04:29N 43°12' E 008°53'1311.5
2015-Apr-26 03:23N 43°08' E 009°09'2111.4
2015-Apr-26 01:33N 42°58' E 009°34'4711.5
2015-Apr-25 21:30N 42°21' E 010°13'  
Track history (hours):
 
Tides and Currents Weather Stations Pressure Air Temp Water Temp Dewpoint Dewpoint Depression Visibility Wind Speed Wind Dir Waves Ship Positions

My Little Violet

Last reported at 2015-May-04 19:31 UTC. Time now 2015-May-07 01:37 UTC.
Position N 43°39' E 007°17'.

Length 45 m.

Type: Pleasure craft. MMSI: 319496000.

Date/timePositionNaut miles runAvg speedWind from/ knotsBaromVisibWave heightAir tempDewpointWater temp
2015-May-04 19:31N 43°39' E 007°17'5 4.8
2015-May-04 18:33N 43°39' E 007°11'4 4.3
2015-May-04 17:33N 43°35' E 007°10'1612.6
2015-May-04 16:16N 43°19' E 007°07'21 5.5
2015-May-04 12:23N 43°16' E 006°38'0 0.0
2015-May-04 11:33N 43°16' E 006°38'0 0.0
2015-May-04 10:32N 43°16' E 006°38'0 0.0
2015-May-04 03:26N 43°16' E 006°38'0 0.0
2015-May-04 02:21N 43°16' E 006°38'0 0.0
2015-May-04 01:21N 43°16' E 006°38'0 0.0
2015-May-04 00:33N 43°16' E 006°38'0 0.0
2015-May-03 23:17N 43°16' E 006°38'0 0.0
2015-May-03 22:27N 43°16' E 006°38'0 0.0
2015-May-03 21:33N 43°16' E 006°38'0 0.0
2015-May-03 18:06N 43°16' E 006°38'0 0.0
2015-May-03 17:04N 43°16' E 006°38'  
2015-Apr-30 19:04N 43°29' E 007°03'611.2
2015-Apr-30 18:33N 43°33' E 007°09'6 6.4
2015-Apr-30 17:33N 43°39' E 007°11'0 0.0
2015-Apr-30 16:33N 43°39' E 007°11'0 0.0
2015-Apr-30 15:33N 43°39' E 007°11'0 0.0
2015-Apr-30 14:33N 43°39' E 007°11'2 1.8
2015-Apr-30 13:33N 43°38' E 007°13'  
2015-Apr-27 17:14N 43°42' E 007°17'0 0.0
2015-Apr-27 16:33N 43°42' E 007°17'0 0.0
2015-Apr-27 15:33N 43°42' E 007°17'0 0.0
2015-Apr-27 14:33N 43°42' E 007°17'0 0.0
2015-Apr-27 13:33N 43°42' E 007°17'0 0.0
2015-Apr-27 12:32N 43°42' E 007°17'0 0.0
2015-Apr-27 11:33N 43°42' E 007°17'0 0.0
2015-Apr-27 10:33N 43°42' E 007°17'0 0.0
2015-Apr-27 09:33N 43°42' E 007°17'0 0.0
2015-Apr-27 08:33N 43°42' E 007°17'0 0.0
2015-Apr-27 07:33N 43°42' E 007°17'0 0.0
2015-Apr-27 06:33N 43°42' E 007°17'0 0.0
2015-Apr-27 05:33N 43°42' E 007°17'0 0.0
2015-Apr-27 04:33N 43°42' E 007°17'0 0.0
2015-Apr-27 03:33N 43°42' E 007°17'0 0.0
2015-Apr-27 02:33N 43°42' E 007°17'0 0.0
2015-Apr-27 01:33N 43°42' E 007°17'0 0.0
2015-Apr-26 23:33N 43°42' E 007°17'0 0.0
2015-Apr-26 22:33N 43°42' E 007°17'0 0.0
2015-Apr-26 21:33N 43°42' E 007°17'0 0.0
2015-Apr-26 20:33N 43°42' E 007°17'0 0.0
2015-Apr-26 19:33N 43°42' E 007°17'0 0.0
2015-Apr-26 18:33N 43°42' E 007°17'0 0.0
2015-Apr-26 17:33N 43°42' E 007°17'0 0.0
2015-Apr-26 16:33N 43°42' E 007°17'0 0.0
2015-Apr-26 15:28N 43°42' E 007°17'0 0.0
2015-Apr-26 14:15N 43°42' E 007°17'0 0.0
2015-Apr-26 13:30N 43°42' E 007°17'0 0.0
2015-Apr-26 12:33N 43°42' E 007°17'2 1.8
2015-Apr-26 11:33N 43°41' E 007°19'3110.0
2015-Apr-26 08:26N 43°28' E 007°59'4310.8
2015-Apr-26 04:29N 43°12' E 008°53'1311.5
2015-Apr-26 03:23N 43°08' E 009°09'2111.4
2015-Apr-26 01:33N 42°58' E 009°34'4711.5
2015-Apr-25 21:30N 42°21' E 010°13'  

Dump ship's entire track history